sensor_id;sensor_type;location;lat;lon;timestamp;P1;durP1;ratioP1;P2;durP2;ratioP2
41259;SDS011;26993;48.958;9.330;2022-07-17T00:00:38;6.47;;;4.70;;
41259;SDS011;26993;48.958;9.330;2022-07-17T00:03:27;7.47;;;4.03;;
41259;SDS011;26993;48.958;9.330;2022-07-17T00:06:14;8.68;;;4.15;;
41259;SDS011;26993;48.958;9.330;2022-07-17T00:09:02;5.25;;;4.18;;
41259;SDS011;26993;48.958;9.330;2022-07-17T00:11:49;8.38;;;4.70;;
41259;SDS011;26993;48.958;9.330;2022-07-17T00:14:36;10.63;;;4.35;;
41259;SDS011;26993;48.958;9.330;2022-07-17T00:17:22;4.85;;;4.22;;
41259;SDS011;26993;48.958;9.330;2022-07-17T00:20:10;7.70;;;4.07;;
41259;SDS011;26993;48.958;9.330;2022-07-17T00:22:58;5.15;;;3.97;;
41259;SDS011;26993;48.958;9.330;2022-07-17T00:25:46;5.28;;;3.78;;
41259;SDS011;26993;48.958;9.330;2022-07-17T00:28:33;5.95;;;4.22;;
41259;SDS011;26993;48.958;9.330;2022-07-17T00:31:19;4.93;;;3.97;;
41259;SDS011;26993;48.958;9.330;2022-07-17T00:34:06;5.95;;;4.28;;
41259;SDS011;26993;48.958;9.330;2022-07-17T00:36:53;6.20;;;3.95;;
41259;SDS011;26993;48.958;9.330;2022-07-17T00:39:39;4.57;;;3.33;;
41259;SDS011;26993;48.958;9.330;2022-07-17T00:42:28;6.65;;;3.88;;
41259;SDS011;26993;48.958;9.330;2022-07-17T00:45:14;5.23;;;3.80;;
41259;SDS011;26993;48.958;9.330;2022-07-17T00:48:02;7.87;;;3.80;;
41259;SDS011;26993;48.958;9.330;2022-07-17T00:50:50;6.43;;;4.10;;
41259;SDS011;26993;48.958;9.330;2022-07-17T00:53:37;4.80;;;4.10;;
41259;SDS011;26993;48.958;9.330;2022-07-17T00:56:25;5.45;;;3.78;;
41259;SDS011;26993;48.958;9.330;2022-07-17T00:59:15;5.20;;;4.15;;
41259;SDS011;26993;48.958;9.330;2022-07-17T01:02:02;6.03;;;4.28;;
41259;SDS011;26993;48.958;9.330;2022-07-17T01:04:50;6.53;;;3.75;;
41259;SDS011;26993;48.958;9.330;2022-07-17T01:07:36;6.80;;;4.20;;
41259;SDS011;26993;48.958;9.330;2022-07-17T01:10:23;8.90;;;5.05;;
41259;SDS011;26993;48.958;9.330;2022-07-17T01:13:10;5.95;;;4.47;;
41259;SDS011;26993;48.958;9.330;2022-07-17T01:15:58;5.47;;;3.77;;
41259;SDS011;26993;48.958;9.330;2022-07-17T01:18:45;4.57;;;4.00;;
41259;SDS011;26993;48.958;9.330;2022-07-17T01:21:40;5.67;;;4.40;;
41259;SDS011;26993;48.958;9.330;2022-07-17T01:24:27;5.60;;;4.10;;
41259;SDS011;26993;48.958;9.330;2022-07-17T01:27:14;6.67;;;3.70;;
41259;SDS011;26993;48.958;9.330;2022-07-17T01:30:01;4.87;;;3.60;;
41259;SDS011;26993;48.958;9.330;2022-07-17T01:32:49;6.70;;;4.33;;
41259;SDS011;26993;48.958;9.330;2022-07-17T01:35:36;5.80;;;4.03;;
41259;SDS011;26993;48.958;9.330;2022-07-17T01:38:24;4.57;;;3.57;;
41259;SDS011;26993;48.958;9.330;2022-07-17T01:41:10;5.77;;;4.33;;
41259;SDS011;26993;48.958;9.330;2022-07-17T01:43:57;9.70;;;4.40;;
41259;SDS011;26993;48.958;9.330;2022-07-17T01:46:44;5.53;;;4.20;;
41259;SDS011;26993;48.958;9.330;2022-07-17T01:49:31;5.87;;;4.43;;
41259;SDS011;26993;48.958;9.330;2022-07-17T01:52:18;9.97;;;4.37;;
41259;SDS011;26993;48.958;9.330;2022-07-17T01:55:07;6.97;;;4.73;;
41259;SDS011;26993;48.958;9.330;2022-07-17T01:57:55;6.57;;;4.43;;
41259;SDS011;26993;48.958;9.330;2022-07-17T02:00:42;5.57;;;4.30;;
41259;SDS011;26993;48.958;9.330;2022-07-17T02:03:29;7.23;;;4.57;;
41259;SDS011;26993;48.958;9.330;2022-07-17T02:06:16;8.13;;;4.93;;
41259;SDS011;26993;48.958;9.330;2022-07-17T02:09:02;8.37;;;4.77;;
41259;SDS011;26993;48.958;9.330;2022-07-17T02:11:51;6.70;;;4.40;;
41259;SDS011;26993;48.958;9.330;2022-07-17T02:14:37;5.57;;;4.37;;
41259;SDS011;26993;48.958;9.330;2022-07-17T02:17:24;7.23;;;4.50;;
41259;SDS011;26993;48.958;9.330;2022-07-17T02:20:11;7.30;;;4.70;;
41259;SDS011;26993;48.958;9.330;2022-07-17T02:22:58;8.50;;;4.63;;
41259;SDS011;26993;48.958;9.330;2022-07-17T02:25:45;6.87;;;4.67;;
41259;SDS011;26993;48.958;9.330;2022-07-17T02:28:33;5.40;;;4.13;;
41259;SDS011;26993;48.958;9.330;2022-07-17T02:31:20;6.43;;;4.37;;
41259;SDS011;26993;48.958;9.330;2022-07-17T02:34:07;5.87;;;4.53;;
41259;SDS011;26993;48.958;9.330;2022-07-17T02:36:53;6.33;;;4.17;;
41259;SDS011;26993;48.958;9.330;2022-07-17T02:39:40;7.47;;;4.37;;
41259;SDS011;26993;48.958;9.330;2022-07-17T02:42:37;6.00;;;4.37;;
41259;SDS011;26993;48.958;9.330;2022-07-17T02:45:25;5.57;;;4.40;;
41259;SDS011;26993;48.958;9.330;2022-07-17T02:48:12;10.33;;;5.13;;
41259;SDS011;26993;48.958;9.330;2022-07-17T02:50:59;6.83;;;4.83;;
41259;SDS011;26993;48.958;9.330;2022-07-17T02:53:45;7.97;;;5.00;;
41259;SDS011;26993;48.958;9.330;2022-07-17T02:56:32;7.23;;;5.00;;
41259;SDS011;26993;48.958;9.330;2022-07-17T02:59:19;8.27;;;5.03;;
41259;SDS011;26993;48.958;9.330;2022-07-17T03:02:07;6.77;;;4.83;;
41259;SDS011;26993;48.958;9.330;2022-07-17T03:04:54;6.97;;;4.20;;
41259;SDS011;26993;48.958;9.330;2022-07-17T03:07:41;12.10;;;5.00;;
41259;SDS011;26993;48.958;9.330;2022-07-17T03:10:29;6.03;;;4.50;;
41259;SDS011;26993;48.958;9.330;2022-07-17T03:13:15;6.10;;;4.40;;
41259;SDS011;26993;48.958;9.330;2022-07-17T03:16:02;6.00;;;4.60;;
41259;SDS011;26993;48.958;9.330;2022-07-17T03:18:51;8.97;;;4.73;;
41259;SDS011;26993;48.958;9.330;2022-07-17T03:21:38;6.60;;;4.30;;
41259;SDS011;26993;48.958;9.330;2022-07-17T03:24:24;5.40;;;4.60;;
41259;SDS011;26993;48.958;9.330;2022-07-17T03:27:11;8.03;;;4.50;;
41259;SDS011;26993;48.958;9.330;2022-07-17T03:29:58;5.10;;;4.43;;
41259;SDS011;26993;48.958;9.330;2022-07-17T03:32:44;5.47;;;4.40;;
41259;SDS011;26993;48.958;9.330;2022-07-17T03:35:32;6.47;;;4.40;;
41259;SDS011;26993;48.958;9.330;2022-07-17T03:38:19;5.73;;;4.73;;
41259;SDS011;26993;48.958;9.330;2022-07-17T03:41:06;9.47;;;5.37;;
41259;SDS011;26993;48.958;9.330;2022-07-17T03:43:52;7.07;;;5.40;;
41259;SDS011;26993;48.958;9.330;2022-07-17T03:46:39;7.90;;;5.33;;
41259;SDS011;26993;48.958;9.330;2022-07-17T03:49:26;7.07;;;5.30;;
41259;SDS011;26993;48.958;9.330;2022-07-17T03:52:14;13.93;;;5.27;;
41259;SDS011;26993;48.958;9.330;2022-07-17T03:55:01;9.83;;;4.87;;
41259;SDS011;26993;48.958;9.330;2022-07-17T03:57:47;8.13;;;4.70;;
41259;SDS011;26993;48.958;9.330;2022-07-17T04:00:34;6.80;;;4.80;;
41259;SDS011;26993;48.958;9.330;2022-07-17T04:03:21;7.43;;;4.90;;
41259;SDS011;26993;48.958;9.330;2022-07-17T04:06:08;8.80;;;5.33;;
41259;SDS011;26993;48.958;9.330;2022-07-17T04:08:56;9.87;;;4.87;;
41259;SDS011;26993;48.958;9.330;2022-07-17T04:11:43;6.13;;;4.53;;
41259;SDS011;26993;48.958;9.330;2022-07-17T04:14:30;5.40;;;4.27;;
41259;SDS011;26993;48.958;9.330;2022-07-17T04:17:16;11.03;;;4.37;;
41259;SDS011;26993;48.958;9.330;2022-07-17T04:20:03;10.67;;;4.13;;
41259;SDS011;26993;48.958;9.330;2022-07-17T04:22:50;4.60;;;4.07;;
41259;SDS011;26993;48.958;9.330;2022-07-17T04:25:39;4.97;;;4.07;;
41259;SDS011;26993;48.958;9.330;2022-07-17T04:28:25;5.80;;;4.10;;
41259;SDS011;26993;48.958;9.330;2022-07-17T04:31:12;10.20;;;4.37;;
41259;SDS011;26993;48.958;9.330;2022-07-17T04:33:59;5.77;;;3.80;;
41259;SDS011;26993;48.958;9.330;2022-07-17T04:36:46;4.77;;;3.87;;
41259;SDS011;26993;48.958;9.330;2022-07-17T04:39:33;4.73;;;3.90;;
41259;SDS011;26993;48.958;9.330;2022-07-17T04:42:21;6.30;;;4.37;;
41259;SDS011;26993;48.958;9.330;2022-07-17T04:45:08;9.17;;;4.60;;
41259;SDS011;26993;48.958;9.330;2022-07-17T04:47:55;6.73;;;4.00;;
41259;SDS011;26993;48.958;9.330;2022-07-17T04:50:42;5.83;;;3.90;;
41259;SDS011;26993;48.958;9.330;2022-07-17T04:53:29;8.57;;;3.90;;
41259;SDS011;26993;48.958;9.330;2022-07-17T04:56:16;5.90;;;3.50;;
41259;SDS011;26993;48.958;9.330;2022-07-17T04:59:04;5.97;;;3.40;;
41259;SDS011;26993;48.958;9.330;2022-07-17T05:01:51;3.90;;;3.00;;
41259;SDS011;26993;48.958;9.330;2022-07-17T05:04:37;3.50;;;3.20;;
41259;SDS011;26993;48.958;9.330;2022-07-17T05:07:24;4.53;;;3.40;;
41259;SDS011;26993;48.958;9.330;2022-07-17T05:10:11;7.55;;;3.15;;
41259;SDS011;26993;48.958;9.330;2022-07-17T05:12:58;6.13;;;3.42;;
41259;SDS011;26993;48.958;9.330;2022-07-17T05:15:46;5.68;;;3.70;;
41259;SDS011;26993;48.958;9.330;2022-07-17T05:18:34;5.75;;;3.47;;
41259;SDS011;26993;48.958;9.330;2022-07-17T05:21:21;9.07;;;3.50;;
41259;SDS011;26993;48.958;9.330;2022-07-17T05:24:08;7.00;;;3.20;;
41259;SDS011;26993;48.958;9.330;2022-07-17T05:26:54;5.05;;;3.00;;
41259;SDS011;26993;48.958;9.330;2022-07-17T05:29:42;4.07;;;2.58;;
41259;SDS011;26993;48.958;9.330;2022-07-17T05:32:30;4.15;;;3.25;;
41259;SDS011;26993;48.958;9.330;2022-07-17T05:35:17;6.90;;;3.15;;
41259;SDS011;26993;48.958;9.330;2022-07-17T05:38:04;3.17;;;2.60;;
41259;SDS011;26993;48.958;9.330;2022-07-17T05:40:51;5.68;;;3.13;;
41259;SDS011;26993;48.958;9.330;2022-07-17T05:43:38;5.40;;;2.90;;
41259;SDS011;26993;48.958;9.330;2022-07-17T05:46:24;5.63;;;3.15;;
41259;SDS011;26993;48.958;9.330;2022-07-17T05:49:13;5.25;;;3.58;;
41259;SDS011;26993;48.958;9.330;2022-07-17T05:51:59;6.30;;;3.33;;
41259;SDS011;26993;48.958;9.330;2022-07-17T05:54:46;3.60;;;3.03;;
41259;SDS011;26993;48.958;9.330;2022-07-17T05:57:33;4.32;;;3.00;;
41259;SDS011;26993;48.958;9.330;2022-07-17T06:00:19;4.68;;;3.13;;
41259;SDS011;26993;48.958;9.330;2022-07-17T06:03:06;4.32;;;3.30;;
41259;SDS011;26993;48.958;9.330;2022-07-17T06:05:54;6.85;;;3.40;;
41259;SDS011;26993;48.958;9.330;2022-07-17T06:08:41;3.75;;;3.40;;
41259;SDS011;26993;48.958;9.330;2022-07-17T06:11:28;7.38;;;2.95;;
41259;SDS011;26993;48.958;9.330;2022-07-17T06:14:14;3.83;;;3.40;;
41259;SDS011;26993;48.958;9.330;2022-07-17T06:17:02;3.85;;;3.30;;
41259;SDS011;26993;48.958;9.330;2022-07-17T06:19:49;4.43;;;3.50;;
41259;SDS011;26993;48.958;9.330;2022-07-17T06:22:38;6.50;;;3.22;;
41259;SDS011;26993;48.958;9.330;2022-07-17T06:25:25;3.47;;;3.05;;
41259;SDS011;26993;48.958;9.330;2022-07-17T06:28:12;4.65;;;3.10;;
41259;SDS011;26993;48.958;9.330;2022-07-17T06:30:59;5.38;;;3.22;;
41259;SDS011;26993;48.958;9.330;2022-07-17T06:33:45;5.68;;;3.13;;
41259;SDS011;26993;48.958;9.330;2022-07-17T06:36:32;5.15;;;2.72;;
41259;SDS011;26993;48.958;9.330;2022-07-17T06:39:20;4.50;;;2.70;;
41259;SDS011;26993;48.958;9.330;2022-07-17T06:42:07;4.07;;;3.00;;
41259;SDS011;26993;48.958;9.330;2022-07-17T06:44:56;4.60;;;2.75;;
41259;SDS011;26993;48.958;9.330;2022-07-17T06:47:42;2.80;;;2.50;;
41259;SDS011;26993;48.958;9.330;2022-07-17T06:50:29;3.22;;;2.55;;
41259;SDS011;26993;48.958;9.330;2022-07-17T06:53:16;6.13;;;2.65;;
41259;SDS011;26993;48.958;9.330;2022-07-17T06:56:04;3.45;;;2.80;;
41259;SDS011;26993;48.958;9.330;2022-07-17T06:58:51;4.55;;;3.10;;
41259;SDS011;26993;48.958;9.330;2022-07-17T07:01:38;3.72;;;3.15;;
41259;SDS011;26993;48.958;9.330;2022-07-17T07:04:24;4.60;;;2.70;;
41259;SDS011;26993;48.958;9.330;2022-07-17T07:07:11;3.95;;;2.97;;
41259;SDS011;26993;48.958;9.330;2022-07-17T07:09:58;2.95;;;2.42;;
41259;SDS011;26993;48.958;9.330;2022-07-17T07:12:46;8.30;;;2.58;;
41259;SDS011;26993;48.958;9.330;2022-07-17T07:15:33;3.83;;;2.40;;
41259;SDS011;26993;48.958;9.330;2022-07-17T07:18:19;3.75;;;2.50;;
41259;SDS011;26993;48.958;9.330;2022-07-17T07:21:06;5.55;;;2.60;;
41259;SDS011;26993;48.958;9.330;2022-07-17T07:23:53;5.13;;;2.67;;
41259;SDS011;26993;48.958;9.330;2022-07-17T07:26:40;5.85;;;2.75;;
41259;SDS011;26993;48.958;9.330;2022-07-17T07:29:29;6.55;;;2.60;;
41259;SDS011;26993;48.958;9.330;2022-07-17T07:32:15;4.10;;;2.63;;
41259;SDS011;26993;48.958;9.330;2022-07-17T07:35:02;3.75;;;2.58;;
41259;SDS011;26993;48.958;9.330;2022-07-17T07:37:50;4.03;;;2.50;;
41259;SDS011;26993;48.958;9.330;2022-07-17T07:40:36;2.50;;;2.30;;
41259;SDS011;26993;48.958;9.330;2022-07-17T07:43:23;3.83;;;2.60;;
41259;SDS011;26993;48.958;9.330;2022-07-17T07:46:11;5.40;;;2.53;;
41259;SDS011;26993;48.958;9.330;2022-07-17T07:48:58;3.08;;;2.60;;
41259;SDS011;26993;48.958;9.330;2022-07-17T07:51:45;2.72;;;2.50;;
41259;SDS011;26993;48.958;9.330;2022-07-17T07:54:31;3.42;;;2.83;;
41259;SDS011;26993;48.958;9.330;2022-07-17T07:57:18;3.65;;;2.67;;
41259;SDS011;26993;48.958;9.330;2022-07-17T08:00:07;3.58;;;2.55;;
41259;SDS011;26993;48.958;9.330;2022-07-17T08:02:57;4.35;;;2.90;;
41259;SDS011;26993;48.958;9.330;2022-07-17T08:05:44;3.70;;;2.70;;
41259;SDS011;26993;48.958;9.330;2022-07-17T08:08:30;3.63;;;2.70;;
41259;SDS011;26993;48.958;9.330;2022-07-17T08:11:17;3.00;;;2.63;;
41259;SDS011;26993;48.958;9.330;2022-07-17T08:14:04;3.95;;;2.85;;
41259;SDS011;26993;48.958;9.330;2022-07-17T08:16:50;3.22;;;2.60;;
41259;SDS011;26993;48.958;9.330;2022-07-17T08:19:39;4.38;;;2.72;;
41259;SDS011;26993;48.958;9.330;2022-07-17T08:22:25;3.45;;;2.70;;
41259;SDS011;26993;48.958;9.330;2022-07-17T08:25:12;5.88;;;2.50;;
41259;SDS011;26993;48.958;9.330;2022-07-17T08:27:59;3.40;;;2.58;;
41259;SDS011;26993;48.958;9.330;2022-07-17T08:30:46;4.53;;;2.42;;
41259;SDS011;26993;48.958;9.330;2022-07-17T08:33:33;6.75;;;2.50;;
41259;SDS011;26993;48.958;9.330;2022-07-17T08:36:21;3.83;;;2.60;;
41259;SDS011;26993;48.958;9.330;2022-07-17T08:39:08;4.10;;;2.78;;
41259;SDS011;26993;48.958;9.330;2022-07-17T08:41:54;3.00;;;2.72;;
41259;SDS011;26993;48.958;9.330;2022-07-17T08:44:41;3.88;;;2.47;;
41259;SDS011;26993;48.958;9.330;2022-07-17T08:47:28;4.70;;;2.90;;
41259;SDS011;26993;48.958;9.330;2022-07-17T08:50:15;4.95;;;2.50;;
41259;SDS011;26993;48.958;9.330;2022-07-17T08:53:08;3.10;;;2.40;;
41259;SDS011;26993;48.958;9.330;2022-07-17T08:55:55;4.22;;;2.30;;
41259;SDS011;26993;48.958;9.330;2022-07-17T08:58:42;3.30;;;2.88;;
41259;SDS011;26993;48.958;9.330;2022-07-17T09:01:28;3.40;;;2.72;;
41259;SDS011;26993;48.958;9.330;2022-07-17T09:04:16;3.30;;;2.75;;
41259;SDS011;26993;48.958;9.330;2022-07-17T09:07:04;2.92;;;2.45;;
41259;SDS011;26993;48.958;9.330;2022-07-17T09:09:53;3.78;;;2.55;;
41259;SDS011;26993;48.958;9.330;2022-07-17T09:12:40;6.68;;;2.50;;
41259;SDS011;26993;48.958;9.330;2022-07-17T09:15:27;4.72;;;2.70;;
41259;SDS011;26993;48.958;9.330;2022-07-17T09:18:14;3.03;;;2.50;;
41259;SDS011;26993;48.958;9.330;2022-07-17T09:21:02;3.13;;;2.40;;
41259;SDS011;26993;48.958;9.330;2022-07-17T09:23:58;7.95;;;2.35;;
41259;SDS011;26993;48.958;9.330;2022-07-17T09:26:47;3.83;;;2.83;;
41259;SDS011;26993;48.958;9.330;2022-07-17T09:29:34;2.42;;;2.15;;
41259;SDS011;26993;48.958;9.330;2022-07-17T09:32:22;2.53;;;2.33;;
41259;SDS011;26993;48.958;9.330;2022-07-17T09:35:11;3.42;;;2.40;;
41259;SDS011;26993;48.958;9.330;2022-07-17T09:37:57;4.32;;;2.60;;
41259;SDS011;26993;48.958;9.330;2022-07-17T09:40:44;2.63;;;2.38;;
41259;SDS011;26993;48.958;9.330;2022-07-17T09:43:51;4.50;;;2.63;;
41259;SDS011;26993;48.958;9.330;2022-07-17T09:46:40;6.97;;;2.72;;
41259;SDS011;26993;48.958;9.330;2022-07-17T09:49:27;6.07;;;2.50;;
41259;SDS011;26993;48.958;9.330;2022-07-17T09:52:14;4.47;;;2.50;;
41259;SDS011;26993;48.958;9.330;2022-07-17T09:55:03;4.30;;;2.60;;
41259;SDS011;26993;48.958;9.330;2022-07-17T09:57:51;2.58;;;2.38;;
41259;SDS011;26993;48.958;9.330;2022-07-17T10:00:42;2.60;;;2.40;;
41259;SDS011;26993;48.958;9.330;2022-07-17T10:03:29;3.03;;;2.65;;
41259;SDS011;26993;48.958;9.330;2022-07-17T10:06:16;3.08;;;2.53;;
41259;SDS011;26993;48.958;9.330;2022-07-17T10:09:03;3.13;;;2.67;;
41259;SDS011;26993;48.958;9.330;2022-07-17T10:11:51;2.70;;;2.50;;
41259;SDS011;26993;48.958;9.330;2022-07-17T10:14:38;3.42;;;2.63;;
41259;SDS011;26993;48.958;9.330;2022-07-17T10:17:27;2.80;;;2.50;;
41259;SDS011;26993;48.958;9.330;2022-07-17T10:20:23;4.65;;;2.22;;
41259;SDS011;26993;48.958;9.330;2022-07-17T10:23:13;3.13;;;2.42;;
41259;SDS011;26993;48.958;9.330;2022-07-17T10:26:01;3.97;;;2.85;;
41259;SDS011;26993;48.958;9.330;2022-07-17T10:28:48;4.78;;;2.50;;
41259;SDS011;26993;48.958;9.330;2022-07-17T10:31:34;4.60;;;2.55;;
41259;SDS011;26993;48.958;9.330;2022-07-17T10:34:35;4.65;;;2.67;;
41259;SDS011;26993;48.958;9.330;2022-07-17T10:37:24;6.10;;;3.05;;
41259;SDS011;26993;48.958;9.330;2022-07-17T10:40:14;2.63;;;2.42;;
41259;SDS011;26993;48.958;9.330;2022-07-17T10:43:03;5.05;;;2.55;;
41259;SDS011;26993;48.958;9.330;2022-07-17T10:45:51;2.50;;;2.30;;
41259;SDS011;26993;48.958;9.330;2022-07-17T10:48:38;2.58;;;2.38;;
41259;SDS011;26993;48.958;9.330;2022-07-17T10:51:27;2.72;;;2.47;;
41259;SDS011;26993;48.958;9.330;2022-07-17T10:54:14;4.90;;;2.20;;
41259;SDS011;26993;48.958;9.330;2022-07-17T10:57:01;2.63;;;2.10;;
41259;SDS011;26993;48.958;9.330;2022-07-17T10:59:48;3.13;;;2.55;;
41259;SDS011;26993;48.958;9.330;2022-07-17T11:02:35;2.33;;;2.13;;
41259;SDS011;26993;48.958;9.330;2022-07-17T11:05:22;3.55;;;2.28;;
41259;SDS011;26993;48.958;9.330;2022-07-17T11:08:10;2.67;;;2.08;;
41259;SDS011;26993;48.958;9.330;2022-07-17T11:10:58;2.85;;;2.15;;
41259;SDS011;26993;48.958;9.330;2022-07-17T11:13:45;2.25;;;2.05;;
41259;SDS011;26993;48.958;9.330;2022-07-17T11:16:32;3.65;;;2.20;;
41259;SDS011;26993;48.958;9.330;2022-07-17T11:19:22;5.90;;;1.98;;
41259;SDS011;26993;48.958;9.330;2022-07-17T11:22:11;2.10;;;1.90;;
41259;SDS011;26993;48.958;9.330;2022-07-17T11:25:02;1.98;;;1.80;;
41259;SDS011;26993;48.958;9.330;2022-07-17T11:27:50;2.53;;;1.98;;
41259;SDS011;26993;48.958;9.330;2022-07-17T11:30:37;4.90;;;2.17;;
41259;SDS011;26993;48.958;9.330;2022-07-17T11:33:24;3.03;;;2.05;;
41259;SDS011;26993;48.958;9.330;2022-07-17T11:36:10;3.72;;;2.30;;
41259;SDS011;26993;48.958;9.330;2022-07-17T11:38:58;2.38;;;2.17;;
41259;SDS011;26993;48.958;9.330;2022-07-17T11:41:48;2.17;;;1.98;;
41259;SDS011;26993;48.958;9.330;2022-07-17T11:44:37;2.25;;;1.90;;
41259;SDS011;26993;48.958;9.330;2022-07-17T11:47:26;3.72;;;2.20;;
41259;SDS011;26993;48.958;9.330;2022-07-17T11:50:13;2.55;;;2.08;;
41259;SDS011;26993;48.958;9.330;2022-07-17T11:53:00;4.95;;;1.90;;
41259;SDS011;26993;48.958;9.330;2022-07-17T11:55:49;2.15;;;1.90;;
41259;SDS011;26993;48.958;9.330;2022-07-17T11:58:44;2.30;;;2.10;;
41259;SDS011;26993;48.958;9.330;2022-07-17T12:01:39;1.95;;;1.83;;
41259;SDS011;26993;48.958;9.330;2022-07-17T12:04:27;2.85;;;2.17;;
41259;SDS011;26993;48.958;9.330;2022-07-17T12:07:14;2.58;;;1.73;;
41259;SDS011;26993;48.958;9.330;2022-07-17T12:10:10;2.60;;;1.90;;
41259;SDS011;26993;48.958;9.330;2022-07-17T12:12:59;2.58;;;1.63;;
41259;SDS011;26993;48.958;9.330;2022-07-17T12:15:48;2.28;;;1.98;;
41259;SDS011;26993;48.958;9.330;2022-07-17T12:18:35;2.92;;;1.88;;
41259;SDS011;26993;48.958;9.330;2022-07-17T12:21:22;2.15;;;1.95;;
41259;SDS011;26993;48.958;9.330;2022-07-17T12:24:09;2.97;;;2.00;;
41259;SDS011;26993;48.958;9.330;2022-07-17T12:26:58;2.38;;;2.00;;
41259;SDS011;26993;48.958;9.330;2022-07-17T12:29:46;2.10;;;1.90;;
41259;SDS011;26993;48.958;9.330;2022-07-17T12:32:41;2.10;;;2.00;;
41259;SDS011;26993;48.958;9.330;2022-07-17T12:35:27;2.15;;;1.92;;
41259;SDS011;26993;48.958;9.330;2022-07-17T12:38:14;2.42;;;2.00;;
41259;SDS011;26993;48.958;9.330;2022-07-17T12:41:01;2.33;;;2.00;;
41259;SDS011;26993;48.958;9.330;2022-07-17T12:43:48;2.40;;;2.15;;
41259;SDS011;26993;48.958;9.330;2022-07-17T12:46:34;2.20;;;2.00;;
41259;SDS011;26993;48.958;9.330;2022-07-17T12:49:22;4.28;;;2.28;;
41259;SDS011;26993;48.958;9.330;2022-07-17T12:52:10;3.72;;;2.10;;
41259;SDS011;26993;48.958;9.330;2022-07-17T12:54:58;2.42;;;2.00;;
41259;SDS011;26993;48.958;9.330;2022-07-17T12:57:45;5.88;;;2.08;;
41259;SDS011;26993;48.958;9.330;2022-07-17T13:00:32;2.30;;;2.10;;
41259;SDS011;26993;48.958;9.330;2022-07-17T13:03:19;4.50;;;2.03;;
41259;SDS011;26993;48.958;9.330;2022-07-17T13:06:07;2.85;;;2.10;;
41259;SDS011;26993;48.958;9.330;2022-07-17T13:08:54;2.58;;;2.10;;
41259;SDS011;26993;48.958;9.330;2022-07-17T13:11:41;2.17;;;1.98;;
41259;SDS011;26993;48.958;9.330;2022-07-17T13:14:28;2.38;;;2.10;;
41259;SDS011;26993;48.958;9.330;2022-07-17T13:17:16;2.35;;;2.00;;
41259;SDS011;26993;48.958;9.330;2022-07-17T13:20:03;2.20;;;1.90;;
41259;SDS011;26993;48.958;9.330;2022-07-17T13:22:52;4.25;;;2.05;;
41259;SDS011;26993;48.958;9.330;2022-07-17T13:25:38;2.03;;;1.80;;
41259;SDS011;26993;48.958;9.330;2022-07-17T13:28:25;2.78;;;2.00;;
41259;SDS011;26993;48.958;9.330;2022-07-17T13:31:12;2.28;;;1.90;;
41259;SDS011;26993;48.958;9.330;2022-07-17T13:34:00;4.97;;;2.10;;
41259;SDS011;26993;48.958;9.330;2022-07-17T13:36:47;2.08;;;1.88;;
41259;SDS011;26993;48.958;9.330;2022-07-17T13:39:35;2.92;;;1.90;;
41259;SDS011;26993;48.958;9.330;2022-07-17T13:42:22;2.30;;;2.10;;
41259;SDS011;26993;48.958;9.330;2022-07-17T13:45:08;3.97;;;1.88;;
41259;SDS011;26993;48.958;9.330;2022-07-17T13:47:55;2.55;;;2.13;;
41259;SDS011;26993;48.958;9.330;2022-07-17T13:50:43;4.05;;;1.73;;
41259;SDS011;26993;48.958;9.330;2022-07-17T13:53:30;4.38;;;2.17;;
41259;SDS011;26993;48.958;9.330;2022-07-17T13:56:18;3.28;;;2.10;;
41259;SDS011;26993;48.958;9.330;2022-07-17T13:59:05;3.03;;;2.05;;
41259;SDS011;26993;48.958;9.330;2022-07-17T14:01:52;1.70;;;1.60;;
41259;SDS011;26993;48.958;9.330;2022-07-17T14:04:38;2.20;;;1.98;;
41259;SDS011;26993;48.958;9.330;2022-07-17T14:07:25;2.70;;;2.03;;
41259;SDS011;26993;48.958;9.330;2022-07-17T14:10:12;4.85;;;2.00;;
41259;SDS011;26993;48.958;9.330;2022-07-17T14:13:00;2.17;;;1.80;;
41259;SDS011;26993;48.958;9.330;2022-07-17T14:15:47;3.20;;;1.90;;
41259;SDS011;26993;48.958;9.330;2022-07-17T14:18:33;2.38;;;2.08;;
41259;SDS011;26993;48.958;9.330;2022-07-17T14:21:20;3.78;;;2.35;;
41259;SDS011;26993;48.958;9.330;2022-07-17T14:24:07;2.90;;;1.98;;
41259;SDS011;26993;48.958;9.330;2022-07-17T14:26:54;2.70;;;1.92;;
41259;SDS011;26993;48.958;9.330;2022-07-17T14:29:42;5.35;;;1.88;;
41259;SDS011;26993;48.958;9.330;2022-07-17T14:32:29;1.90;;;1.75;;
41259;SDS011;26993;48.958;9.330;2022-07-17T14:35:15;2.22;;;1.83;;
41259;SDS011;26993;48.958;9.330;2022-07-17T14:38:02;2.20;;;1.65;;
41259;SDS011;26993;48.958;9.330;2022-07-17T14:40:51;2.75;;;1.75;;
41259;SDS011;26993;48.958;9.330;2022-07-17T14:43:38;2.38;;;1.83;;
41259;SDS011;26993;48.958;9.330;2022-07-17T14:46:26;2.35;;;1.92;;
41259;SDS011;26993;48.958;9.330;2022-07-17T14:49:12;2.25;;;1.90;;
41259;SDS011;26993;48.958;9.330;2022-07-17T14:51:59;2.78;;;1.92;;
41259;SDS011;26993;48.958;9.330;2022-07-17T14:54:46;4.13;;;2.00;;
41259;SDS011;26993;48.958;9.330;2022-07-17T14:57:33;3.45;;;1.77;;
41259;SDS011;26993;48.958;9.330;2022-07-17T15:00:20;4.20;;;1.80;;
41259;SDS011;26993;48.958;9.330;2022-07-17T15:03:08;2.92;;;1.85;;
41259;SDS011;26993;48.958;9.330;2022-07-17T15:05:56;2.08;;;1.77;;
41259;SDS011;26993;48.958;9.330;2022-07-17T15:08:43;4.55;;;1.98;;
41259;SDS011;26993;48.958;9.330;2022-07-17T15:11:30;3.17;;;2.22;;
41259;SDS011;26993;48.958;9.330;2022-07-17T15:14:17;2.15;;;1.75;;
41259;SDS011;26993;48.958;9.330;2022-07-17T15:17:04;3.38;;;1.75;;
41259;SDS011;26993;48.958;9.330;2022-07-17T15:19:52;5.15;;;1.90;;
41259;SDS011;26993;48.958;9.330;2022-07-17T15:22:39;2.03;;;1.83;;
41259;SDS011;26993;48.958;9.330;2022-07-17T15:25:25;1.75;;;1.65;;
41259;SDS011;26993;48.958;9.330;2022-07-17T15:28:12;2.38;;;2.00;;
41259;SDS011;26993;48.958;9.330;2022-07-17T15:30:59;2.25;;;1.80;;
41259;SDS011;26993;48.958;9.330;2022-07-17T15:33:45;2.90;;;1.73;;
41259;SDS011;26993;48.958;9.330;2022-07-17T15:36:34;2.63;;;1.88;;
41259;SDS011;26993;48.958;9.330;2022-07-17T15:39:20;2.50;;;1.80;;
41259;SDS011;26993;48.958;9.330;2022-07-17T15:42:07;3.58;;;1.80;;
41259;SDS011;26993;48.958;9.330;2022-07-17T15:44:54;2.90;;;1.77;;
41259;SDS011;26993;48.958;9.330;2022-07-17T15:47:41;2.10;;;1.83;;
41259;SDS011;26993;48.958;9.330;2022-07-17T15:50:27;2.05;;;1.75;;
41259;SDS011;26993;48.958;9.330;2022-07-17T15:53:15;2.20;;;2.00;;
41259;SDS011;26993;48.958;9.330;2022-07-17T15:56:02;2.70;;;1.85;;
41259;SDS011;26993;48.958;9.330;2022-07-17T15:58:49;2.70;;;1.90;;
41259;SDS011;26993;48.958;9.330;2022-07-17T16:01:36;2.20;;;1.60;;
41259;SDS011;26993;48.958;9.330;2022-07-17T16:04:22;4.25;;;2.05;;
41259;SDS011;26993;48.958;9.330;2022-07-17T16:07:09;1.98;;;1.63;;
41259;SDS011;26993;48.958;9.330;2022-07-17T16:09:58;3.38;;;1.77;;
41259;SDS011;26993;48.958;9.330;2022-07-17T16:12:44;2.88;;;1.60;;
41259;SDS011;26993;48.958;9.330;2022-07-17T16:15:31;2.22;;;1.80;;
41259;SDS011;26993;48.958;9.330;2022-07-17T16:18:18;3.90;;;2.00;;
41259;SDS011;26993;48.958;9.330;2022-07-17T16:21:05;3.03;;;1.80;;
41259;SDS011;26993;48.958;9.330;2022-07-17T16:23:51;3.08;;;1.90;;
41259;SDS011;26993;48.958;9.330;2022-07-17T16:26:39;2.38;;;1.65;;
41259;SDS011;26993;48.958;9.330;2022-07-17T16:29:26;2.25;;;1.77;;
41259;SDS011;26993;48.958;9.330;2022-07-17T16:32:13;2.60;;;1.73;;
41259;SDS011;26993;48.958;9.330;2022-07-17T16:35:00;2.78;;;1.95;;
41259;SDS011;26993;48.958;9.330;2022-07-17T16:37:46;3.80;;;1.80;;
41259;SDS011;26993;48.958;9.330;2022-07-17T16:40:33;2.40;;;1.90;;
41259;SDS011;26993;48.958;9.330;2022-07-17T16:43:21;2.60;;;1.70;;
41259;SDS011;26993;48.958;9.330;2022-07-17T16:46:08;2.63;;;1.73;;
41259;SDS011;26993;48.958;9.330;2022-07-17T16:48:55;3.53;;;1.70;;